02:03
Airports
History
Links
Donate
Help keep this website running!
PayPal
Bitcoin
This page is community maintained. The information is intended for PC simulator navigation or reference.
Always use approved charts for navigation.
LIPV
Venezia San Nicolo
Venezia San Nicolo (LIPV)
Venice, Veneto, Italy (30126)
4
Lat/Lng:45° 25' 42.19" N / 12° 23' 16.8" E
45.428387 / 12.388
Elevation:13'ft / 4mMSL
ID / ICAO:LIPV
Runways:1
Longest:05-23
Grass 1,062m / 3,485ft
Nearby Weather01:50 GMT 2017-09-20
Nearby weather at LIPZ, Venezia Tessera located 5.6 nautical miles from LIPV
Altimeter: 29.91
Visibility: 6.2 statute miles
Wind: 7 knots (from 270°)
Temp: 12°c / 54°f
Humidity: 87.6%

METAR: LIPZ 200150Z 27007KT CAVOK 12/10 Q1013 NOSIG

(Powered by phpweather)
Nearby VORs <50NM
Nearby NDBs
Runway 05 / 23
Dimensions:1062.2 x 60.1m 3485' x 197'ft
Surface:Grass
Runway 05 [A]Runway 23 [B]
Heading:050°TH 230°TH
Lat:
Lng:
45° 25' 31.15"N
12° 22' 58.05"E
45° 25' 53.23"N
12° 23' 35.54"E
User Notes and Comments
45° 25' 42.19" N / 12° 23' 16.8" E
Distance To
Airport ID:
Nearby Airports
(C) Venezia Tessera 5.6 NM
LIPZ ( WX ) NNW 341°
(C) TREVISO 17.9 NM
LIPH ( WX ) NNW 328°
4 Salgareda Aviosuperficie Carrer 20.3 NM
LIDW NNE 20°
(C) Istrana 22.9 NM
LIPS ( WX ) NW 320°
(U) PADOVA 26.3 NM
LIPU W 265°
4 Ca' Negra 26.4 NM
LIDC SSW 205°
4 Fraforeano Ronchis 41.3 NM
LIDJ NE 47°
VFR Chart
Flight Planning at SkyVector.com